KMDH Weather | Aviation | SIU

Home
Southern Illinois University

CONTACT

SIU.EDU

Aviation - Weather

College of Applied Sciences and Arts

KMDH Weather

NOTICE: Although all weather products are taken from the National Weather Service, this data should be used only as a supplement to a formal weather briefing.

Last Updated: Thursday, November 21st, 2019, 4:24 pm
Information on this page is updated every 5 minutes.


METARS

KMDH 212152Z 20013KT 6SM BR OVC005 12/12 A2997 RMK AO2 SLP149 T01220117

KMDH 212052Z 21013KT 9SM OVC007 12/11 A2996 RMK AO2 SLP146 T01220111 56005

KMDH 211952Z 20012G22KT 10SM OVC008 12/11 A2996 RMK AO2 SLP146 T01220106

KMDH 211924Z 22014G21KT 10SM OVC009 12/11 A2997 RMK AO2 T01220106

KMWA 212145Z 21011KT 10SM OVC006 13/12 A2998

KMWA 212045Z 21013G21KT 10SM OVC008 13/11 A2997

KMWA 211945Z 20013G20KT 10SM OVC008 12/11 A2997

KCGI 212204Z 20008KT 1 3/4SM BR OVC003 13/12 A2999 RMK AO2 T01330122

KCGI 212153Z 20007G16KT 2SM BR OVC003 13/12 A2999 RMK AO2 SLP155 T01330122

KCGI 212137Z 20010G16KT 2 1/2SM BR OVC004 13/12 A2999 RMK AO2 T01330122

KCGI 212109Z 21009G19KT 3SM BR OVC004 13/12 A2998 RMK AO2 T01330117

KCGI 212053Z 21014G19KT 5SM BR OVC005 13/12 A2998 RMK AO2 SLP152 T01330117 56012

KCGI 211953Z 20012KT 7SM OVC005 13/11 A2998 RMK AO2 SLP152 T01280111

KSAR 212155Z AUTO 20007KT 3SM BR OVC005 13/13 A2996 RMK AO2 T01300130

KSAR 212135Z AUTO 20006KT 4SM BR OVC007 13/13 A2996 RMK AO2 T01310130

KSAR 212115Z AUTO 19009KT 7SM OVC007 13/13 A2994 RMK AO2 T01320128

KSAR 212055Z AUTO 21008KT 10SM OVC009 13/13 A2994 RMK AO2 T01340127

KSAR 212035Z AUTO 19010KT 10SM OVC009 14/13 A2994 RMK AO2 T01350127

KSAR 212015Z AUTO 20011KT 10SM OVC009 14/13 A2994 RMK AO2 T01350126

KSAR 211955Z AUTO 19011KT 10SM OVC011 14/13 A2994 RMK AO2 T01360125

KSAR 211935Z AUTO 19011G15KT 10SM OVC011 14/13 A2994 RMK AO2 T01370125

KFAM 212207Z AUTO 23005KT 2SM -RA BR OVC003 13/13 A2997 RMK AO2 RAB2159 P0000

KFAM 212156Z AUTO 22005KT 1 3/4SM BR OVC003 13/13 A2996 RMK AO2 RAB22E32 SLP155

KFAM 212140Z AUTO 21005KT 1 3/4SM BR OVC003 13/13 A2996 RMK AO2 RAB22E32 P0000

KFAM 212117Z AUTO 20006KT 2 1/2SM BR OVC003 13/13 A2995 RMK AO2

KFAM 212107Z AUTO 20008KT 3SM BR OVC003 13/13 A2995 RMK AO2

KFAM 212056Z AUTO 21006KT 2 1/2SM BR OVC003 13/13 A2995 RMK AO2 RAB37E50 SLP149

KFAM 212054Z AUTO 20007KT 2 1/2SM BR OVC003 13/13 A2995 RMK AO2 RAB37E50 P0000

KFAM 212004Z AUTO 20009KT 7SM OVC005 13/13 A2994 RMK AO2

KFAM 211956Z AUTO 20012KT 8SM OVC007 14/13 A2994 RMK AO2 SLP147 T01390128

KMVN 212156Z AUTO 21012KT 10SM OVC008 13/12 A2996 RMK AO2 SLP149 T01280117

KMVN 212056Z AUTO 21015KT 10SM OVC008 13/12 A2994 RMK AO2 SLP143 T01280117 56002

KMVN 211956Z AUTO 21013G21KT 10SM OVC012 13/11 A2994 RMK AO2 SLP142 T01280111

KHSB 212215Z AUTO 22013G16KT 10SM OVC008 13/11 A2999 RMK AO2 T01270110

KHSB 212155Z AUTO 22014G17KT 10SM OVC008 13/11 A2999 RMK AO2 T01270110

KHSB 212135Z AUTO 22015G21KT 10SM OVC008 13/11 A2998 RMK AO2 T01270110

KCIR 212155Z AUTO 18003KT 2 1/2SM BR OVC004 12/12 A3002 RMK AO2 T01200120

KCIR 212135Z AUTO 18006KT 2 1/2SM BR OVC004 12/12 A3002 RMK AO2 T01200120

KPAH 212153Z 21007G17KT 170V230 3SM BR OVC006 12/11 A3001 RMK AO2 SLP162

KPAH 212138Z 21008G16KT 3SM BR OVC006 12/11 A3001 RMK AO2 T01220111

KFAM 212207Z AUTO 23005KT 2SM -RA BR OVC003 13/13 A2997 RMK AO2 RAB2159 P0000

KFAM 212156Z AUTO 22005KT 1 3/4SM BR OVC003 13/13 A2996 RMK AO2 RAB22E32 SLP155

KFAM 212140Z AUTO 21005KT 1 3/4SM BR OVC003 13/13 A2996 RMK AO2 RAB22E32 P0000

KBLV 212210Z AUTO 31007KT 10SM -RA SCT005 OVC012 13/12 A2994 RMK AO2

KBLV 212205Z AUTO 30011KT 10SM -RA BKN005 OVC013 14/13 A2994 RMK AO2

KBLV 212200Z AUTO 28006KT 10SM -DZ SCT005 BKN013 OVC018 14/14 A2993 RMK AO2

KBLV 212158Z 31010KT 3SM -DZ SCT005 BKN010 OVC015 14/14 A2993 RMK DZB58 CIG

KBLV 212156Z 30008KT 2SM SCT005 BKN010 OVC015 14/14 A2993 RMK

KBLV 212135Z VRB04KT 2SM -RA SCT010 BKN018 OVC027 14/14 A2991 RMK

KBLV 212121Z AUTO 18006KT 10SM -DZ SCT011 BKN016 OVC027 14/14 A2991 RMK AO2

KSUS 212151Z 30012KT 10SM SCT022 OVC037 13/08 A2997 RMK AO2 PRESRR

KSUS 212133Z 32011KT 10SM BKN020 BKN039 OVC050 13/09 A2995 RMK AO2 T01330094

KCPS 212153Z 33009KT 10SM BKN019 OVC029 21/10 A2995 RMK AO2 SLP139 T02110100

KCPS 212132Z 34008KT 10SM FEW008 BKN015 OVC021 22/11 A2993 RMK AO2 T02220111

KVIH 212153Z AUTO 32012KT 10SM OVC017 10/06 A2999 RMK AO2 SLP157 T01000061

KVIH 212129Z AUTO 32010KT 10SM BKN018 OVC029 11/07 A2998 RMK AO2 T01110072

KENL 212215Z AUTO 21010G15KT 2SM BR OVC006 13/12 A2995 RMK AO2 T01300120

KENL 212155Z AUTO 21010KT 4SM BR OVC006 13/12 A2994 RMK AO2 T01320120

KENL 212135Z AUTO 21012G20KT 5SM BR OVC008 13/12 A2993 RMK AO2 T01340120

KMTO 212153Z AUTO 21008KT 6SM BR BKN009 OVC016 13/11 A2989 RMK AO2 CIG 008V013

KFWC 212215Z AUTO 20005KT 10SM OVC009 13/13 A2996 RMK AO1 T01280125

KFWC 212155Z AUTO 21005KT 10SM OVC009 13/12 A2995 RMK AO1 T01290123

KFWC 212135Z AUTO 20008KT 10SM OVC009 13/12 A2994 RMK AO1 T01300122

KCUL 212155Z AUTO 21013G21KT 10SM OVC011 12/11 A2998 RMK AO2

KCUL 212135Z AUTO 20013G21KT 10SM OVC011 12/11 A2997 RMK AO2

KEVV 212154Z 22015KT 10SM OVC010 12/10 A3001 RMK AO2 SLP161 T01170100

KCEY 212215Z AUTO 18009G17KT 4SM BKN010 OVC013 12/12 A3005 RMK AO1

KCEY 212155Z AUTO 17009G14KT 7SM BKN010 OVC019 12/12 A3004 RMK AO1

KCEY 212135Z AUTO 19009G16KT 7SM BKN014 OVC021 12/12 A3004 RMK AO1

KHOP 212211Z AUTO 22020G24KT 10SM BKN026 OVC035 15/07 A3005 RMK AO2 SLP178 $

KHOP 212156Z AUTO 23013KT 10SM BKN034 OVC044 16/06 A3005 RMK AO2 PK WND 22026/05

KBYH 212156Z 19008KT 7SM SCT008 OVC085 13/12 A3003

KARG 212210Z AUTO 19009KT 1 3/4SM BR OVC003 14/13 A3000 RMK AO2

KARG 212156Z AUTO 19010KT 2 1/2SM BR OVC003 14/13 A3000 RMK AO2 SLP161 T01390133

KJBR 212153Z AUTO 20009KT 8SM OVC005 14/13 A3001 RMK AO2 RAE05 SLP163 P0000

KALN 212145Z 29013G20KT 10SM OVC024 12/10 A2995

KALN 212145Z 29013G20KT 10SM OVC024 12/10 A2995

KCOU 212154Z 31009G17KT 10SM OVC016 08/05 A3002 RMK AO2 SLP165 T00830050 $

KAJG 212155Z AUTO 21012KT 10SM OVC010 12/11 A2995 RMK AO2 T01210107

KAJG 212135Z AUTO 21013KT 4SM BR OVC010 12/11 A2995 RMK AO2 T01210106

KM30 212155Z AUTO 19008KT 4SM -DZ OVC005 12/12 A3003 RMK AO2 T01210115

KM30 212135Z AUTO 19005KT 2SM RA OVC005 12/11 A3002 RMK AO2 T01210114

KDEC 212154Z 28008G19KT 10SM OVC020 11/07 A2992 RMK AO2 PK WND 27026/2103 SLP133

KIJX 212155Z AUTO 29013G17KT 10SM OVC021 09/06 A2995 RMK AO2 T00910059

KIJX 212135Z AUTO 28012G20KT 10SM OVC019 09/06 A2995 RMK AO2 T00930064


TAFS

KEVV 212000Z 2120/2218 20015G25KT 6SM -SHRA OVC018

        FM212100 21012G21KT P6SM OVC015

        FM220700 35010KT 4SM RA OVC009

        FM221200 36012KT P6SM OVC012


Winds Aloft



Pilot Reports

No pilot reports found for area.



Area Forecast



Significant Weather

WAUS44 KKCI 212101 AAA DFWZ WA 212101 AMD AIRMET ZULU UPDT 5 FOR ICE AND FRZLVL VALID UNTIL 220300 AIRMET ICE...OK TX AR TN KS MO IL KY FROM 30NE STL TO 70SW PXV TO 30W DYR TO 30W ARG TO 20NE FSM TO 30ENE LBB TO 50N INK TO 30ESE TBE TO 50W LBL TO 30SE LAA TO 30SSW GCK TO 30NE STL MOD ICE BTN FRZLVL AND FL210. FRZLVL 050-120. CONDS CONTG BYD 03Z THRU 09Z. OTLK VALID 0300-0900Z AREA 1...ICE OK TX NE KS IA MO IL IN BOUNDED BY BFF-40ENE LBF-20SSE HLC-30SE OVR-20NE IRK-30SSE FWA-CVG-30SE FAM-20N TUL-20W OKC-60SW MMB-30ESE TCC-30ESE TBE-50W LBL-GLD-BFF MOD ICE BTN FRZLVL AND FL200. FRZLVL SFC-050. CONDS CONTG THRU 09Z. AREA 2...ICE OK TX AR TN MO IL IN KY...UPDT BOUNDED BY CVG-20W HNN-50WSW BKW-20N GQO-60WNW ARG-30SSE TUL-40S CDS-20E INK-30ESE TCC-60SW MMB-20W OKC-20NNW TUL-30SE FAM-CVG MOD ICE BTN FRZLVL AND FL240. FRZLVL 040-120. CONDS CONTG THRU 09Z. FRZLVL...RANGING FROM SFC-160 ACRS AREA MULT FRZLVL 020-120 BOUNDED BY OSW-30NW RZC-40NE OKC-40SSW AMA-20SSE TCC-30ESE TBE-50W LBL-OSW 080 ALG 30SSW TXO-70SSE MMB-20SE OSW 120 ALG 50WSW MRF-20ESE MRF-20NW ADM-70ESE RZC-30SSW VXV
WAUS43 KKCI 212101 AAA CHIZ WA 212101 AMD AIRMET ZULU UPDT 4 FOR ICE AND FRZLVL VALID UNTIL 220300 AIRMET ICE...KS MO IL KY OK TX AR TN FROM 30NE STL TO 70SW PXV TO 30W DYR TO 30W ARG TO 20NE FSM TO 30ENE LBB TO 50N INK TO 30ESE TBE TO 50W LBL TO 30SE LAA TO 30SSW GCK TO 30NE STL MOD ICE BTN FRZLVL AND FL210. FRZLVL 050-120. CONDS CONTG BYD 03Z THRU 09Z. OTLK VALID 0300-0900Z AREA 1...ICE WI LM LS MI LH BOUNDED BY 70NNE SAW-SSM-60WNW YVV-30E ECK-20SE TVC-30SE GRB-70NNE SAW MOD ICE BLW 160. CONDS CONTG THRU 09Z. AREA 2...ICE IA MO WI LM MI LH IL IN BOUNDED BY 20SE TVC-30E ECK-30SW DXO-GIJ-30W BVT-20NE IRK-40SSE DBQ-30SE GRB-20SE TVC MOD ICE BLW 070. CONDS CONTG THRU 09Z. AREA 3...ICE NE KS IA MO IL IN OK TX BOUNDED BY BFF-40ENE LBF-20SSE HLC-30SE OVR-20NE IRK-30SSE FWA-CVG-30SE FAM-20N TUL-20W OKC-60SW MMB-30ESE TCC-30ESE TBE-50W LBL-GLD-BFF MOD ICE BTN FRZLVL AND FL200. FRZLVL SFC-050. CONDS CONTG THRU 09Z. AREA 4...ICE MO IL IN KY OK TX AR TN...UPDT BOUNDED BY CVG-20W HNN-50WSW BKW-20N GQO-60WNW ARG-30SSE TUL-40S CDS-20E INK-30ESE TCC-60SW MMB-20W OKC-20NNW TUL-30SE FAM-CVG MOD ICE BTN FRZLVL AND FL240. FRZLVL 040-120. CONDS CONTG THRU 09Z. FRZLVL...RANGING FROM SFC-120 ACRS AREA MULT FRZLVL 020-120 BOUNDED BY SSM-50NW YVV-60SW YVV-30SSE ECK-FWA-30W ROD-30SE TTH-30NW RZC-OSW-50W LBL-40ESE LAA- HLC-40W PWE-20W DSM-SSM SFC ALG 20NNW GLD-50W MCK-20SSE LBF-40E OVR-40WSW DBQ-50W SSM- 20WNW SSM 040 ALG 50NNE MMB-50WSW BUM-40NW AXC-20SSE GRR-60NW YVV 080 ALG 20SE OSW-40SE AXC-20S FWA
WAUS44 KKCI 212045 DFWS WA 212045 AIRMET SIERRA UPDT 10 FOR IFR AND MTN OBSCN VALID UNTIL 220300 AIRMET IFR...OK TX AR TN LA MS MO IL IN KY FROM 40WNW PXV TO 40SSE PXV TO 60W BNA TO 40N SQS TO 20ESE ELD TO 40SSE TTT TO 50ESE MAF TO 20N INK TO 60SSW TXO TO 20SSE OKC TO 40ESE OSW TO 50ENE SGF TO 40NE FAM TO 40WNW PXV CIG BLW 010/VIS BLW 3SM PCPN/BR. CONDS CONTG BYD 03Z THRU 09Z. OTLK VALID 0300-0900Z AREA 1...IFR OK TX AR TN LA KS MO IL IN KY BOUNDED BY 40SE CVG-30NNW LOZ-40SW TXK-40SSE ACT-70SSW SAT-30SSE DLF-40NW DLF-40WSW SJT-30E MAF-60SSE LBB-20NNW SGF-50WNW IIU- 40SE CVG CIG BLW 010/VIS BLW 3SM PCPN/BR. CONDS CONTG THRU 09Z. AREA 2...MTN OBSCN TX BOUNDED BY 20WNW ELP-60W INK-60WNW DLF-40SSW MRF-20WNW ELP MTNS OBSC BY CLDS/PCPN/BR. CONDS DVLPG AFT 03Z. CONDS CONTG THRU 09Z.
WAUS43 KKCI 212045 CHIS WA 212045 AIRMET SIERRA UPDT 7 FOR IFR AND MTN OBSCN VALID UNTIL 220300 AIRMET IFR...MO IL IN KY OK TX AR TN LA MS FROM 40WNW PXV TO 40SSE PXV TO 60W BNA TO 40N SQS TO 20ESE ELD TO 40SSE TTT TO 50ESE MAF TO 20N INK TO 60SSW TXO TO 20SSE OKC TO 40ESE OSW TO 50ENE SGF TO 40NE FAM TO 40WNW PXV CIG BLW 010/VIS BLW 3SM PCPN/BR. CONDS CONTG BYD 03Z THRU 09Z. OTLK VALID 0300-0900Z AREA 1...IFR KS MO IL IN KY OK TX AR TN LA BOUNDED BY 40SE CVG-30NNW LOZ-40SW TXK-40SSE ACT-70SSW SAT-30SSE DLF-40NW DLF-40WSW SJT-30E MAF-60SSE LBB-20NNW SGF-50WNW IIU- 40SE CVG CIG BLW 010/VIS BLW 3SM PCPN/BR. CONDS CONTG THRU 09Z. AREA 2...MTN OBSCN KY BOUNDED BY HNN-20NE HMV-40ENE VXV-60W VXV-50WSW LOZ-HNN MTNS OBSC BY CLDS/PCPN/BR. CONDS DVLPG AFT 06Z. CONDS CONTG THRU 09Z.